New Nada — 3ELP9 — position and weather

sailwx.info

Track history (hours):
 
Tides and Currents Weather Stations Pressure Air Temp Water Temp Dewpoint Dewpoint Depression Visibility Wind Speed Wind Dir Waves Ship Positions

New Nada

Last reported at 2015-Mar-25 03:26 UTC. Time now 2015-Mar-26 23:49 UTC.
Position N 39°27' W 073°52'.

Length 180 m; beam 32.2 m.

Type: Cargo ship. MMSI: 356005000.

Date/timePositionNaut miles runAvg speedWind from/ knotsBaromVisibWave heightAir tempDewpointWater temp
2015-Mar-25 03:26N 39°27' W 073°52'1517.3
2015-Mar-25 02:33N 39°42' W 073°52'1717.2
2015-Mar-25 01:33N 39°59' W 073°50'1312.8
2015-Mar-25 00:33N 40°12' W 073°49'10 9.9
2015-Mar-24 23:33N 40°22' W 073°49'8 8.2
2015-Mar-24 22:34N 40°29' W 073°54'1212.1
2015-Mar-24 21:33N 40°38' W 074°04'5 4.6
2015-Mar-24 20:33N 40°41' W 074°08'0 0.0
2015-Mar-24 19:33N 40°41' W 074°08'0 0.0
2015-Mar-24 18:32N 40°41' W 074°08'0 0.0
2015-Mar-24 17:32N 40°41' W 074°08'0 0.0
2015-Mar-24 16:32N 40°41' W 074°08'0 0.0
2015-Mar-24 15:32N 40°41' W 074°08'0 0.0
2015-Mar-24 14:17N 40°41' W 074°08'0 0.0
2015-Mar-24 13:17N 40°41' W 074°08'0 0.0
2015-Mar-24 12:32N 40°41' W 074°08'0 0.0
2015-Mar-24 11:32N 40°41' W 074°08'0 0.0
2015-Mar-24 10:20N 40°41' W 074°08'0 0.0
2015-Mar-24 09:32N 40°41' W 074°08'0 0.0
2015-Mar-24 08:20N 40°41' W 074°08'0 0.0
2015-Mar-24 07:32N 40°41' W 074°08'0 0.0
2015-Mar-24 06:32N 40°41' W 074°08'0 0.0
2015-Mar-24 05:29N 40°41' W 074°08'0 0.0
2015-Mar-24 04:20N 40°41' W 074°08'0 0.0
2015-Mar-24 03:32N 40°41' W 074°08'0 0.0
2015-Mar-24 02:32N 40°41' W 074°08'0 0.0
2015-Mar-24 01:32N 40°41' W 074°08'0 0.0
2015-Mar-24 00:32N 40°41' W 074°08'3 2.9
2015-Mar-23 23:33N 40°39' W 074°07'8 7.7
2015-Mar-23 22:33N 40°33' W 074°01'1010.3
2015-Mar-23 21:33N 40°27' W 073°49'11 8.6
2015-Mar-23 20:14N 40°16' W 073°46'8 9.7
2015-Mar-23 19:28N 40°09' W 073°45'1415.7
2015-Mar-23 18:32N 39°54' W 073°43'1717.5
2015-Mar-23 17:33N 39°37' W 073°42'  
Track history (hours):
 
Tides and Currents Weather Stations Pressure Air Temp Water Temp Dewpoint Dewpoint Depression Visibility Wind Speed Wind Dir Waves Ship Positions

New Nada

Last reported at 2015-Mar-25 03:26 UTC. Time now 2015-Mar-26 23:49 UTC.
Position N 39°27' W 073°52'.

Length 180 m; beam 32.2 m.

Type: Cargo ship. MMSI: 356005000.

Date/timePositionNaut miles runAvg speedWind from/ knotsBaromVisibWave heightAir tempDewpointWater temp
2015-Mar-25 03:26N 39°27' W 073°52'1517.3
2015-Mar-25 02:33N 39°42' W 073°52'1717.2
2015-Mar-25 01:33N 39°59' W 073°50'1312.8
2015-Mar-25 00:33N 40°12' W 073°49'10 9.9
2015-Mar-24 23:33N 40°22' W 073°49'8 8.2
2015-Mar-24 22:34N 40°29' W 073°54'1212.1
2015-Mar-24 21:33N 40°38' W 074°04'5 4.6
2015-Mar-24 20:33N 40°41' W 074°08'0 0.0
2015-Mar-24 19:33N 40°41' W 074°08'0 0.0
2015-Mar-24 18:32N 40°41' W 074°08'0 0.0
2015-Mar-24 17:32N 40°41' W 074°08'0 0.0
2015-Mar-24 16:32N 40°41' W 074°08'0 0.0
2015-Mar-24 15:32N 40°41' W 074°08'0 0.0
2015-Mar-24 14:17N 40°41' W 074°08'0 0.0
2015-Mar-24 13:17N 40°41' W 074°08'0 0.0
2015-Mar-24 12:32N 40°41' W 074°08'0 0.0
2015-Mar-24 11:32N 40°41' W 074°08'0 0.0
2015-Mar-24 10:20N 40°41' W 074°08'0 0.0
2015-Mar-24 09:32N 40°41' W 074°08'0 0.0
2015-Mar-24 08:20N 40°41' W 074°08'0 0.0
2015-Mar-24 07:32N 40°41' W 074°08'0 0.0
2015-Mar-24 06:32N 40°41' W 074°08'0 0.0
2015-Mar-24 05:29N 40°41' W 074°08'0 0.0
2015-Mar-24 04:20N 40°41' W 074°08'0 0.0
2015-Mar-24 03:32N 40°41' W 074°08'0 0.0
2015-Mar-24 02:32N 40°41' W 074°08'0 0.0
2015-Mar-24 01:32N 40°41' W 074°08'0 0.0
2015-Mar-24 00:32N 40°41' W 074°08'3 2.9
2015-Mar-23 23:33N 40°39' W 074°07'8 7.7
2015-Mar-23 22:33N 40°33' W 074°01'1010.3
2015-Mar-23 21:33N 40°27' W 073°49'11 8.6
2015-Mar-23 20:14N 40°16' W 073°46'8 9.7
2015-Mar-23 19:28N 40°09' W 073°45'1415.7
2015-Mar-23 18:32N 39°54' W 073°43'1717.5
2015-Mar-23 17:33N 39°37' W 073°42'  

Dump ship's entire track history